createdAt,value
2018-02-20T00:00:23.987Z,77.51
2018-02-20T00:01:24.015Z,77.46
2018-02-20T00:02:23.999Z,77.34
2018-02-20T00:03:24.003Z,77.4
2018-02-20T00:04:24.015Z,77.5
2018-02-20T00:05:24.009Z,77.32
2018-02-20T00:06:24.334Z,77.51
2018-02-20T00:07:24.023Z,77.7
2018-02-20T00:08:24.019Z,78.04
2018-02-20T00:09:24.030Z,78.22
2018-02-20T00:10:24.019Z,78.05
2018-02-20T00:11:24.030Z,77.95
2018-02-20T00:12:24.020Z,77.87
2018-02-20T00:13:24.029Z,77.78
2018-02-20T00:14:24.060Z,77.94
2018-02-20T00:15:24.031Z,78.03
2018-02-20T00:16:24.022Z,77.68
2018-02-20T00:17:24.030Z,78.3
2018-02-20T00:18:24.033Z,78.43
2018-02-20T00:19:24.046Z,78.26
2018-02-20T00:20:24.036Z,78.05
2018-02-20T00:21:24.039Z,78.41
2018-02-20T00:22:24.046Z,78.57
2018-02-20T00:23:24.049Z,78.22
2018-02-20T00:24:24.072Z,78.57
2018-02-20T00:25:24.058Z,78.5
2018-02-20T00:26:24.056Z,78.66
2018-02-20T00:27:24.069Z,78.32
2018-02-20T00:28:24.068Z,78.27
2018-02-20T00:29:24.068Z,78.11
2018-02-20T00:30:24.081Z,78.38
2018-02-20T00:31:24.084Z,78.24
2018-02-20T00:32:24.085Z,77.96
2018-02-20T00:33:24.094Z,77.67
2018-02-20T00:34:24.082Z,77.68
2018-02-20T00:35:24.079Z,77.72
2018-02-20T00:36:24.107Z,77.68
2018-02-20T00:37:24.116Z,77.92
2018-02-20T00:38:24.255Z,78.19
2018-02-20T00:39:24.257Z,78.21
2018-02-20T00:40:24.097Z,77.93
2018-02-20T00:41:24.271Z,78.22
2018-02-20T00:42:24.266Z,78.21
2018-02-20T00:43:24.280Z,77.76
2018-02-20T00:44:24.270Z,77.93
2018-02-20T00:45:24.284Z,77.94
2018-02-20T00:46:24.118Z,77.72
2018-02-20T00:47:24.158Z,77.59
2018-02-20T00:48:24.282Z,77.43
2018-02-20T00:49:24.174Z,77.56
2018-02-20T00:50:24.138Z,77.65
2018-02-20T00:51:24.121Z,77.5
2018-02-20T00:52:24.137Z,77.36
2018-02-20T00:53:24.294Z,77.19
2018-02-20T00:54:24.159Z,77.18
2018-02-20T00:55:24.154Z,76.91
2018-02-20T00:56:24.141Z,76.88
2018-02-20T00:57:24.138Z,76.86
2018-02-20T00:58:24.139Z,76.69
2018-02-20T00:59:24.139Z,76.92
2018-02-20T01:00:24.131Z,76.92
2018-02-20T01:01:24.148Z,76.86
2018-02-20T01:02:24.133Z,77.08
2018-02-20T01:03:24.137Z,77.23
2018-02-20T01:04:24.141Z,77.4
2018-02-20T01:05:24.146Z,77.6
2018-02-20T01:06:24.152Z,77.3
2018-02-20T01:07:24.137Z,77.41
2018-02-20T01:08:24.167Z,77.6
2018-02-20T01:09:24.163Z,77.39
2018-02-20T01:10:24.311Z,77.06
2018-02-20T01:11:24.164Z,77.03
2018-02-20T01:12:24.177Z,76.99
2018-02-20T01:13:24.184Z,77.24
2018-02-20T01:14:24.173Z,76.96
2018-02-20T01:15:24.171Z,77.1
2018-02-20T01:16:24.163Z,77.17
2018-02-20T01:17:24.180Z,77.16
2018-02-20T01:18:24.166Z,77.21
2018-02-20T01:19:24.168Z,77.2
2018-02-20T01:20:24.180Z,77.1
2018-02-20T01:21:24.184Z,77.63
2018-02-20T01:22:24.184Z,77.78
2018-02-20T01:23:24.200Z,77.82
2018-02-20T01:24:24.204Z,78.03
2018-02-20T01:25:24.356Z,78.49
2018-02-20T01:26:24.187Z,78.47
2018-02-20T01:27:24.193Z,78.91
2018-02-20T01:28:24.215Z,78.57
2018-02-20T01:29:24.189Z,78.59
2018-02-20T01:30:24.206Z,78.58
2018-02-20T01:31:24.202Z,78.55
2018-02-20T01:32:24.199Z,78.68
2018-02-20T01:33:24.530Z,78.66
2018-02-20T01:34:24.209Z,78.67
2018-02-20T01:35:24.218Z,78.64
2018-02-20T01:36:24.215Z,78.57
2018-02-20T01:37:24.239Z,78.29
2018-02-20T01:38:24.257Z,78.08
2018-02-20T01:39:24.244Z,78.23
2018-02-20T01:40:24.241Z,78.12
2018-02-20T01:41:24.265Z,77.9
2018-02-20T01:42:24.269Z,77.6
2018-02-20T01:43:24.310Z,77.87
2018-02-20T01:44:24.254Z,77.52
2018-02-20T01:45:24.262Z,77.42
2018-02-20T01:46:24.256Z,77.37
2018-02-20T01:47:24.256Z,77.25
2018-02-20T01:48:24.298Z,77.37
2018-02-20T01:49:24.421Z,76.81
2018-02-20T01:50:24.417Z,76.95
2018-02-20T01:51:24.420Z,76.69
2018-02-20T01:52:24.433Z,76.55
2018-02-20T01:53:24.458Z,76.46
2018-02-20T01:54:24.284Z,76.27
2018-02-20T01:55:24.432Z,76.08
2018-02-20T01:56:24.277Z,75.96
2018-02-20T01:57:24.444Z,76.2
2018-02-20T01:58:24.462Z,75.83
2018-02-20T01:59:24.294Z,75.88
2018-02-20T02:00:24.495Z,76.13
2018-02-20T02:01:24.454Z,76.12
2018-02-20T02:02:24.465Z,75.97
2018-02-20T02:03:24.305Z,76.15
2018-02-20T02:04:24.313Z,76.15
2018-02-20T02:05:24.465Z,76.16
2018-02-20T02:06:24.313Z,76.15
2018-02-20T02:07:24.320Z,75.97
2018-02-20T02:08:24.319Z,75.95
2018-02-20T02:09:24.351Z,76.15
2018-02-20T02:10:24.313Z,76.02
2018-02-20T02:11:24.469Z,75.76
2018-02-20T02:12:24.311Z,75.53
2018-02-20T02:13:24.492Z,75.54
2018-02-20T02:14:24.508Z,75.44
2018-02-20T02:15:24.321Z,75.43
2018-02-20T02:16:24.312Z,75.4
2018-02-20T02:17:24.492Z,75.47
2018-02-20T02:18:24.351Z,75.64
2018-02-20T02:19:24.333Z,75.61
2018-02-20T02:20:24.334Z,75.2
2018-02-20T02:21:24.330Z,75.12
2018-02-20T02:22:24.519Z,75.55
2018-02-20T02:23:24.351Z,75.63
2018-02-20T02:24:24.333Z,75.71
2018-02-20T02:25:24.349Z,75.92
2018-02-20T02:26:24.359Z,75.37
2018-02-20T02:27:24.345Z,75.51
2018-02-20T02:28:24.351Z,75.7
2018-02-20T02:29:24.404Z,75.79
2018-02-20T02:30:24.349Z,75.65
2018-02-20T02:31:24.356Z,75.47
2018-02-20T02:32:24.349Z,75.5
2018-02-20T02:33:24.376Z,75.68
2018-02-20T02:34:24.385Z,75.54
2018-02-20T02:35:24.432Z,75.75
2018-02-20T02:36:24.388Z,75.62
2018-02-20T02:37:24.375Z,75.58
2018-02-20T02:38:24.385Z,75.48
2018-02-20T02:39:24.372Z,75.29
2018-02-20T02:40:24.401Z,75.61
2018-02-20T02:41:24.395Z,75.5
2018-02-20T02:42:24.391Z,75.52
2018-02-20T02:43:24.390Z,75.84
2018-02-20T02:44:24.404Z,75.8
2018-02-20T02:45:24.438Z,75.67
2018-02-20T02:46:24.426Z,75.71
2018-02-20T02:47:24.403Z,75.77
2018-02-20T02:48:24.608Z,75.87
2018-02-20T02:49:24.428Z,75.73
2018-02-20T02:50:24.454Z,75.94
2018-02-20T02:51:24.444Z,75.8
2018-02-20T02:52:24.441Z,76.11
2018-02-20T02:53:24.435Z,76.02
2018-02-20T02:54:24.438Z,76.11
2018-02-20T02:55:24.466Z,76.15
2018-02-20T02:56:24.458Z,76.04
2018-02-20T02:57:24.459Z,76
2018-02-20T02:58:24.448Z,76.19
2018-02-20T02:59:24.449Z,76.28
2018-02-20T03:00:24.635Z,76.33
2018-02-20T03:01:24.597Z,75.94
2018-02-20T03:02:24.622Z,75.9
2018-02-20T03:03:24.629Z,75.95
2018-02-20T03:04:24.640Z,76.24
2018-02-20T03:05:24.457Z,76.22
2018-02-20T03:06:24.756Z,76.21
2018-02-20T03:07:24.620Z,76.41
2018-02-20T03:08:24.480Z,76.55
2018-02-20T03:09:24.642Z,76.52
2018-02-20T03:10:24.645Z,76.39
2018-02-20T03:11:24.501Z,76.35
2018-02-20T03:12:24.645Z,76.52
2018-02-20T03:13:24.656Z,76.74
2018-02-20T03:14:24.700Z,76.62
2018-02-20T03:15:24.640Z,76.85
2018-02-20T03:16:24.678Z,76.67
2018-02-20T03:17:24.642Z,76.52
2018-02-20T03:18:24.491Z,76.46
2018-02-20T03:19:24.652Z,76.43
2018-02-20T03:20:24.661Z,76.75
2018-02-20T03:21:24.645Z,76.61
2018-02-20T03:22:24.500Z,76.81
2018-02-20T03:23:24.710Z,76.62
2018-02-20T03:24:24.658Z,76.59
2018-02-20T03:25:24.696Z,76.65
2018-02-20T03:26:24.674Z,76.68
2018-02-20T03:27:24.679Z,76.75
2018-02-20T03:28:24.695Z,76.76
2018-02-20T03:29:25.009Z,76.84
2018-02-20T03:30:24.679Z,76.93
2018-02-20T03:31:24.704Z,77.08
2018-02-20T03:32:24.523Z,77.03
2018-02-20T03:33:24.695Z,76.79
2018-02-20T03:34:24.726Z,76.68
2018-02-20T03:35:24.704Z,76.76
2018-02-20T03:36:24.559Z,76.62
2018-02-20T03:37:24.574Z,76.79
2018-02-20T03:38:24.583Z,76.82
2018-02-20T03:39:24.590Z,76.69
2018-02-20T03:40:24.576Z,76.66
2018-02-20T03:41:24.738Z,76.5
2018-02-20T03:42:24.570Z,76.75
2018-02-20T03:43:24.600Z,76.64
2018-02-20T03:44:24.610Z,76.93
2018-02-20T03:45:24.614Z,76.75
2018-02-20T03:46:24.584Z,76.53
2018-02-20T03:47:24.586Z,76.48
2018-02-20T03:48:24.613Z,76.64
2018-02-20T03:49:24.611Z,76.72
2018-02-20T03:50:24.755Z,77
2018-02-20T03:51:24.595Z,77.03
2018-02-20T03:52:24.601Z,77.11
2018-02-20T03:53:24.616Z,76.87
2018-02-20T03:54:24.783Z,76.88
2018-02-20T03:55:24.597Z,76.69
2018-02-20T03:56:24.611Z,76.81
2018-02-20T03:57:24.610Z,77.17
2018-02-20T03:58:24.632Z,77.2
2018-02-20T03:59:24.619Z,77.33
2018-02-20T04:00:24.633Z,77.08
2018-02-20T04:01:24.675Z,77
2018-02-20T04:02:24.652Z,76.88
2018-02-20T04:03:24.650Z,77.08
2018-02-20T04:04:24.682Z,76.97
2018-02-20T04:05:24.650Z,76.84
2018-02-20T04:06:24.665Z,76.8
2018-02-20T04:07:24.673Z,76.78
2018-02-20T04:08:24.663Z,76.79
2018-02-20T04:09:24.660Z,76.93
2018-02-20T04:10:24.664Z,77.07
2018-02-20T04:11:24.672Z,77
2018-02-20T04:12:24.829Z,76.89
2018-02-20T04:13:24.821Z,76.86
2018-02-20T04:14:24.875Z,76.85
2018-02-20T04:15:24.839Z,77
2018-02-20T04:16:24.829Z,77.23
2018-02-20T04:17:24.847Z,76.99
2018-02-20T04:18:24.846Z,76.84
2018-02-20T04:19:24.851Z,76.61
2018-02-20T04:20:24.856Z,76.54
2018-02-20T04:21:24.846Z,76.59
2018-02-20T04:22:24.851Z,76.6
2018-02-20T04:23:24.875Z,76.91
2018-02-20T04:24:24.883Z,76.88
2018-02-20T04:25:24.872Z,77.37
2018-02-20T04:26:24.898Z,77.38
2018-02-20T04:27:24.861Z,77.06
2018-02-20T04:28:24.864Z,77.11
2018-02-20T04:29:24.900Z,77.11
2018-02-20T04:30:24.721Z,77.17
2018-02-20T04:31:25.075Z,77.22
2018-02-20T04:32:24.881Z,77.02
2018-02-20T04:33:24.898Z,77.23
2018-02-20T04:34:25.062Z,77.11
2018-02-20T04:35:24.906Z,77.07
2018-02-20T04:36:24.901Z,77.03
2018-02-20T04:37:24.913Z,77.05
2018-02-20T04:38:24.916Z,76.98
2018-02-20T04:39:24.912Z,77.06
2018-02-20T04:40:24.763Z,77.09
2018-02-20T04:41:24.917Z,77.11
2018-02-20T04:42:24.788Z,77.32
2018-02-20T04:43:24.919Z,77.51
2018-02-20T04:44:24.920Z,77.49
2018-02-20T04:45:24.941Z,77.96
2018-02-20T04:46:24.927Z,78.12
2018-02-20T04:47:24.763Z,77.87
2018-02-20T04:48:24.772Z,77.81
2018-02-20T04:49:24.760Z,77.83
2018-02-20T04:50:24.796Z,77.85
2018-02-20T04:51:24.787Z,77.72
2018-02-20T04:52:24.774Z,77.54
2018-02-20T04:53:24.790Z,77.48
2018-02-20T04:54:25.007Z,77.53
2018-02-20T04:55:25.118Z,77.39
2018-02-20T04:56:24.809Z,77.62
2018-02-20T04:57:24.807Z,78.07
2018-02-20T04:58:24.797Z,78.22
2018-02-20T04:59:24.830Z,78.3
2018-02-20T05:00:24.829Z,78.81
2018-02-20T05:01:24.802Z,78.62
2018-02-20T05:02:24.810Z,78.16
2018-02-20T05:03:24.814Z,78.04
2018-02-20T05:04:24.815Z,77.87
2018-02-20T05:05:24.809Z,77.68
2018-02-20T05:06:24.833Z,77.48
2018-02-20T05:07:24.832Z,77.54
2018-02-20T05:08:24.839Z,77.41
2018-02-20T05:09:24.881Z,77.52
2018-02-20T05:10:24.839Z,77.7
2018-02-20T05:11:24.837Z,77.59
2018-02-20T05:12:25.064Z,77.82
2018-02-20T05:13:24.833Z,77.5
2018-02-20T05:14:24.846Z,77.78
2018-02-20T05:15:24.910Z,78.03
2018-02-20T05:16:24.869Z,77.92
2018-02-20T05:17:24.877Z,77.89
2018-02-20T05:18:24.902Z,77.99
2018-02-20T05:19:25.056Z,77.6
2018-02-20T05:20:24.862Z,77.87
2018-02-20T05:21:24.886Z,78.06
2018-02-20T05:22:24.878Z,78.03
2018-02-20T05:23:25.069Z,78.38
2018-02-20T05:24:25.090Z,78.57
2018-02-20T05:25:25.057Z,78.77
2018-02-20T05:26:25.067Z,78.21
2018-02-20T05:27:25.058Z,78.32
2018-02-20T05:28:25.198Z,78.42
2018-02-20T05:29:25.044Z,78.71
2018-02-20T05:30:25.050Z,78.96
2018-02-20T05:31:25.093Z,78.97
2018-02-20T05:32:25.043Z,78.78
2018-02-20T05:33:25.081Z,78.71
2018-02-20T05:34:25.014Z,78.85
2018-02-20T05:35:25.064Z,78.78
2018-02-20T05:36:25.075Z,79.25
2018-02-20T05:37:25.073Z,79.45
2018-02-20T05:38:25.077Z,79.12
2018-02-20T05:39:25.077Z,78.7
2018-02-20T05:40:25.090Z,78.72
2018-02-20T05:41:25.099Z,78.58
2018-02-20T05:42:25.104Z,78.8
2018-02-20T05:43:24.944Z,79.1
2018-02-20T05:44:25.100Z,78.9
2018-02-20T05:45:25.138Z,78.81
2018-02-20T05:46:25.117Z,78.8
2018-02-20T05:47:25.079Z,78.8
2018-02-20T05:48:25.106Z,79.06
2018-02-20T05:49:25.136Z,79
2018-02-20T05:50:25.156Z,78.92
2018-02-20T05:51:25.125Z,79.03
2018-02-20T05:52:25.137Z,79.09
2018-02-20T05:53:25.141Z,78.94
2018-02-20T05:54:25.138Z,79.02
2018-02-20T05:55:25.166Z,78.96
2018-02-20T05:56:25.165Z,78.89
2018-02-20T05:57:25.208Z,78.79
2018-02-20T05:58:25.165Z,79.14
2018-02-20T05:59:24.994Z,79.52
2018-02-20T06:00:25.035Z,80.01
2018-02-20T06:01:25.241Z,80.5
2018-02-20T06:02:25.013Z,80.16
2018-02-20T06:03:25.013Z,79.81
2018-02-20T06:04:25.023Z,80.07
2018-02-20T06:05:25.019Z,79.87
2018-02-20T06:06:25.029Z,79.68
2018-02-20T06:07:25.043Z,79.66
2018-02-20T06:08:25.606Z,79.42
2018-02-20T06:09:25.057Z,79.62
2018-02-20T06:10:25.045Z,79.68
2018-02-20T06:11:25.061Z,79.62
2018-02-20T06:12:25.063Z,79.64
2018-02-20T06:13:25.046Z,79.69
2018-02-20T06:14:25.055Z,79.76
2018-02-20T06:15:25.071Z,79.46
2018-02-20T06:16:25.096Z,79.16
2018-02-20T06:17:25.070Z,79.2
2018-02-20T06:18:25.063Z,79.17
2018-02-20T06:19:25.097Z,79.25
2018-02-20T06:20:25.069Z,79.16
2018-02-20T06:21:25.099Z,79.22
2018-02-20T06:22:25.075Z,79.08
2018-02-20T06:23:25.061Z,79.09
2018-02-20T06:24:25.080Z,79.49
2018-02-20T06:25:25.071Z,79.35
2018-02-20T06:26:25.077Z,79.49
2018-02-20T06:27:25.095Z,79.46
2018-02-20T06:28:25.094Z,79.17
2018-02-20T06:29:25.207Z,79.27
2018-02-20T06:30:25.106Z,79.11
2018-02-20T06:31:25.092Z,79.27
2018-02-20T06:32:25.102Z,79.5
2018-02-20T06:33:25.128Z,79.7
2018-02-20T06:34:25.124Z,79.62
2018-02-20T06:35:25.254Z,79.15
2018-02-20T06:36:25.266Z,79.46
2018-02-20T06:37:25.265Z,79.64
2018-02-20T06:38:25.265Z,79.8
2018-02-20T06:39:25.295Z,79.89
2018-02-20T06:40:25.270Z,79.97
2018-02-20T06:41:25.275Z,79.63
2018-02-20T06:42:25.276Z,79.56
2018-02-20T06:43:25.277Z,79.52
2018-02-20T06:44:25.317Z,79.47
2018-02-20T06:45:25.281Z,79.39
2018-02-20T06:46:25.302Z,79.28
2018-02-20T06:47:25.293Z,79.44
2018-02-20T06:48:25.143Z,79.74
2018-02-20T06:49:25.149Z,79.59
2018-02-20T06:50:25.329Z,79.73
2018-02-20T06:51:25.336Z,79.71
2018-02-20T06:52:25.141Z,79.67
2018-02-20T06:53:25.179Z,79.82
2018-02-20T06:54:25.171Z,79.67
2018-02-20T06:55:25.171Z,79.81
2018-02-20T06:56:25.186Z,80.01
2018-02-20T06:57:25.168Z,79.99
2018-02-20T06:58:25.178Z,79.86
2018-02-20T06:59:25.191Z,80.02
2018-02-20T07:00:25.171Z,80.12
2018-02-20T07:01:25.196Z,79.99
2018-02-20T07:02:25.202Z,80.33
2018-02-20T07:03:25.193Z,79.94
2018-02-20T07:04:25.234Z,79.93
2018-02-20T07:05:25.196Z,80.14
2018-02-20T07:06:25.233Z,79.99
2018-02-20T07:07:25.208Z,79.87
2018-02-20T07:08:25.223Z,79.76
2018-02-20T07:09:25.254Z,79.89
2018-02-20T07:10:25.217Z,80.01
2018-02-20T07:11:25.264Z,80
2018-02-20T07:12:25.381Z,79.99
2018-02-20T07:13:25.231Z,79.67
2018-02-20T07:14:25.356Z,79.65
2018-02-20T07:15:25.224Z,79.77
2018-02-20T07:16:25.235Z,79.69
2018-02-20T07:17:25.223Z,79.7
2018-02-20T07:18:25.232Z,79.76
2018-02-20T07:19:25.279Z,79.77
2018-02-20T07:20:25.232Z,79.81
2018-02-20T07:21:25.231Z,80.03
2018-02-20T07:22:25.226Z,80.22
2018-02-20T07:23:25.230Z,80.01
2018-02-20T07:24:25.414Z,79.88
2018-02-20T07:25:25.228Z,79.96
2018-02-20T07:26:25.231Z,79.93
2018-02-20T07:27:25.250Z,79.77
2018-02-20T07:28:25.240Z,79.95
2018-02-20T07:29:25.267Z,80.03
2018-02-20T07:30:25.381Z,79.9
2018-02-20T07:31:25.247Z,79.74
2018-02-20T07:32:25.282Z,79.86
2018-02-20T07:33:25.258Z,80.33
2018-02-20T07:34:25.265Z,80.32
2018-02-20T07:35:25.285Z,80.62
2018-02-20T07:36:25.256Z,80.48
2018-02-20T07:37:25.284Z,80.2
2018-02-20T07:38:25.522Z,80.07
2018-02-20T07:39:25.518Z,79.99
2018-02-20T07:40:25.286Z,79.89
2018-02-20T07:41:25.290Z,79.99
2018-02-20T07:42:25.273Z,79.91
2018-02-20T07:43:25.287Z,79.62
2018-02-20T07:44:25.286Z,79.46
2018-02-20T07:45:25.278Z,79.51
2018-02-20T07:46:25.436Z,79.46
2018-02-20T07:47:25.452Z,79.18
2018-02-20T07:48:25.445Z,78.94
2018-02-20T07:49:25.301Z,78.98
2018-02-20T07:50:25.290Z,78.86
2018-02-20T07:51:25.421Z,78.71
2018-02-20T07:52:25.460Z,78.56
2018-02-20T07:53:25.465Z,78.53
2018-02-20T07:54:25.549Z,78.43
2018-02-20T07:55:25.462Z,78.28
2018-02-20T07:56:25.503Z,78.1
2018-02-20T07:57:25.540Z,77.99
2018-02-20T07:58:26.349Z,77.91
2018-02-20T07:59:25.536Z,78.14
2018-02-20T08:00:25.538Z,78.47
2018-02-20T08:01:26.200Z,78.61
2018-02-20T08:02:25.544Z,78.61
2018-02-20T08:03:25.691Z,79
2018-02-20T08:04:25.550Z,79.08
2018-02-20T08:05:25.589Z,79
2018-02-20T08:06:25.589Z,79.1
2018-02-20T08:07:25.364Z,78.98
2018-02-20T08:08:25.668Z,78.92
2018-02-20T08:09:25.360Z,78.92
2018-02-20T08:10:25.373Z,78.86
2018-02-20T08:11:25.389Z,78.4
2018-02-20T08:12:25.387Z,78.4
2018-02-20T08:13:25.573Z,78.33
2018-02-20T08:14:25.604Z,78.35
2018-02-20T08:15:25.587Z,78.28
2018-02-20T08:16:25.573Z,77.96
2018-02-20T08:17:25.806Z,77.89
2018-02-20T08:18:25.587Z,77.93
2018-02-20T08:19:25.601Z,77.59
2018-02-20T08:20:25.585Z,77.69
2018-02-20T08:21:25.607Z,77.24
2018-02-20T08:22:25.412Z,77.1
2018-02-20T08:23:25.441Z,77.02
2018-02-20T08:24:25.413Z,76.98
2018-02-20T08:25:25.436Z,76.95
2018-02-20T08:26:25.435Z,77.22
2018-02-20T08:27:25.422Z,77.27
2018-02-20T08:28:25.469Z,77.23
2018-02-20T08:29:25.438Z,77.23
2018-02-20T08:30:25.445Z,77.47
2018-02-20T08:31:25.456Z,77.46
2018-02-20T08:32:25.446Z,77.31
2018-02-20T08:33:25.488Z,77.38
2018-02-20T08:34:25.462Z,77.21
2018-02-20T08:35:25.451Z,76.87
2018-02-20T08:36:25.551Z,76.76
2018-02-20T08:37:25.461Z,76.8
2018-02-20T08:38:25.468Z,76.95
2018-02-20T08:39:25.480Z,77.04
2018-02-20T08:40:25.484Z,76.39
2018-02-20T08:41:25.471Z,76.37
2018-02-20T08:42:25.481Z,76.38
2018-02-20T08:43:25.517Z,76.37
2018-02-20T08:44:25.471Z,76.6
2018-02-20T08:45:25.467Z,76.1
2018-02-20T08:46:25.470Z,76.01
2018-02-20T08:47:25.470Z,75.89
2018-02-20T08:48:25.502Z,76.2
2018-02-20T08:49:25.493Z,76.09
2018-02-20T08:50:25.794Z,76.23
2018-02-20T08:51:25.495Z,76.11
2018-02-20T08:52:25.495Z,76.31
2018-02-20T08:53:25.582Z,76.19
2018-02-20T08:54:25.488Z,76.04
2018-02-20T08:55:25.497Z,75.73
2018-02-20T08:56:25.493Z,75.66
2018-02-20T08:57:25.501Z,75.88
2018-02-20T08:58:25.695Z,76.2
2018-02-20T08:59:25.693Z,75.58
2018-02-20T09:00:25.792Z,75.79
2018-02-20T09:01:25.707Z,76.44
2018-02-20T09:02:25.574Z,75.59
2018-02-20T09:03:25.777Z,75.92
2018-02-20T09:04:25.714Z,75.88
2018-02-20T09:05:25.719Z,75.65
2018-02-20T09:06:25.733Z,75.35
2018-02-20T09:07:25.712Z,75.27
2018-02-20T09:08:25.779Z,75.54
2018-02-20T09:09:25.724Z,75.42
2018-02-20T09:10:25.721Z,75.69
2018-02-20T09:11:25.726Z,75.42
2018-02-20T09:12:25.744Z,75.07
2018-02-20T09:13:25.902Z,75.23
2018-02-20T09:14:25.724Z,75.58
2018-02-20T09:15:25.785Z,75.38
2018-02-20T09:16:25.804Z,74.93
2018-02-20T09:17:25.797Z,73.59
2018-02-20T09:18:25.797Z,74.02
2018-02-20T09:19:25.584Z,73.32
2018-02-20T09:20:25.789Z,72.92
2018-02-20T09:21:25.812Z,72.4
2018-02-20T09:22:25.747Z,72.5
2018-02-20T09:23:25.610Z,72.63
2018-02-20T09:24:25.609Z,72.63
2018-02-20T09:25:25.738Z,72.57
2018-02-20T09:26:25.800Z,72.58
2018-02-20T09:27:25.790Z,72.8
2018-02-20T09:28:25.634Z,72.05
2018-02-20T09:29:25.806Z,72.48
2018-02-20T09:30:25.806Z,72.7
2018-02-20T09:31:25.858Z,72.02
2018-02-20T09:32:25.643Z,72.24
2018-02-20T09:33:25.843Z,72.45
2018-02-20T09:34:25.632Z,72.1
2018-02-20T09:35:25.643Z,72.39
2018-02-20T09:36:25.687Z,71.88
2018-02-20T09:37:25.712Z,72.08
2018-02-20T09:38:25.945Z,71.85
2018-02-20T09:39:25.693Z,72.31
2018-02-20T09:40:25.666Z,72.63
2018-02-20T09:41:25.667Z,72.7
2018-02-20T09:42:25.714Z,72.12
2018-02-20T09:43:25.700Z,72.16
2018-02-20T09:44:25.668Z,71.85
2018-02-20T09:45:25.695Z,72.35
2018-02-20T09:46:25.681Z,72.28
2018-02-20T09:47:25.671Z,72.26
2018-02-20T09:48:25.742Z,71.6
2018-02-20T09:49:25.687Z,72.13
2018-02-20T09:50:25.698Z,71.74
2018-02-20T09:51:25.686Z,71.93
2018-02-20T09:52:25.732Z,71.47
2018-02-20T09:53:25.733Z,71.41
2018-02-20T09:54:25.739Z,70.91
2018-02-20T09:55:25.904Z,71.19
2018-02-20T09:56:25.748Z,71.46
2018-02-20T09:57:25.898Z,71.11
2018-02-20T09:58:25.831Z,70.33
2018-02-20T09:59:25.748Z,70.64
2018-02-20T10:00:25.811Z,70.78
2018-02-20T10:01:25.855Z,70.66
2018-02-20T10:02:26.926Z,70.69
2018-02-20T10:03:25.755Z,70.88
2018-02-20T10:04:26.773Z,70.91
2018-02-20T10:05:25.827Z,71.44
2018-02-20T10:06:25.745Z,71.06
2018-02-20T10:07:25.824Z,70.34
2018-02-20T10:08:25.773Z,70.67
2018-02-20T10:09:25.740Z,70.68
2018-02-20T10:10:25.982Z,70.89
2018-02-20T10:11:25.956Z,70.9
2018-02-20T10:12:26.422Z,70.42
2018-02-20T10:13:25.985Z,69.9
2018-02-20T10:14:25.948Z,69.67
2018-02-20T10:15:25.847Z,70.05
2018-02-20T10:16:25.775Z,70.36
2018-02-20T10:17:25.949Z,70.27
2018-02-20T10:18:25.950Z,69.63
2018-02-20T10:19:25.774Z,69.24
2018-02-20T10:20:25.995Z,69.88
2018-02-20T10:21:25.831Z,69.46
2018-02-20T10:22:25.960Z,68.47
2018-02-20T10:23:25.945Z,68.68
2018-02-20T10:24:25.974Z,68.37
2018-02-20T10:25:25.776Z,68.61
2018-02-20T10:26:25.988Z,67.29
2018-02-20T10:27:25.830Z,68.71
2018-02-20T10:28:25.871Z,68.71
2018-02-20T10:29:25.777Z,67.98
2018-02-20T10:30:25.783Z,68.56
2018-02-20T10:31:25.792Z,68.65
2018-02-20T10:32:25.792Z,67.7
2018-02-20T10:33:25.796Z,67.57
2018-02-20T10:34:25.859Z,66.89
2018-02-20T10:35:25.858Z,67.07
2018-02-20T10:36:25.891Z,67.53
2018-02-20T10:37:25.853Z,67.52
2018-02-20T10:38:25.804Z,68.06
2018-02-20T10:39:25.855Z,68.94
2018-02-20T10:40:25.856Z,68.73
2018-02-20T10:41:25.898Z,69.41
2018-02-20T10:42:25.859Z,68.77
2018-02-20T10:43:25.934Z,69.06
2018-02-20T10:44:25.859Z,68.5
2018-02-20T10:45:25.860Z,68.63
2018-02-20T10:46:25.884Z,68.75
2018-02-20T10:47:25.902Z,68.94
2018-02-20T10:48:25.901Z,68.48
2018-02-20T10:49:25.896Z,67.83
2018-02-20T10:50:25.904Z,68.13
2018-02-20T10:51:26.121Z,68.2
2018-02-20T10:52:25.869Z,68.43
2018-02-20T10:53:25.895Z,68.61
2018-02-20T10:54:25.908Z,68.53
2018-02-20T10:55:25.980Z,68.08
2018-02-20T10:56:25.949Z,67.54
2018-02-20T10:57:25.926Z,67.92
2018-02-20T10:58:25.949Z,67.65
2018-02-20T10:59:25.894Z,67.26
2018-02-20T11:00:25.892Z,67.1
2018-02-20T11:01:25.876Z,67.69
2018-02-20T11:02:25.904Z,66.99
2018-02-20T11:03:25.912Z,66.58
2018-02-20T11:04:25.900Z,66.56
2018-02-20T11:05:25.937Z,66.82
2018-02-20T11:06:25.915Z,67.1
2018-02-20T11:07:25.906Z,67.25
2018-02-20T11:08:25.933Z,66.98
2018-02-20T11:09:25.909Z,68.38
2018-02-20T11:10:25.924Z,68.61
2018-02-20T11:11:25.914Z,68.31
2018-02-20T11:12:25.916Z,68.25
2018-02-20T11:13:25.968Z,67.75
2018-02-20T11:14:25.945Z,67.89
2018-02-20T11:15:26.036Z,66.92
2018-02-20T11:16:25.915Z,67.81
2018-02-20T11:17:25.919Z,69.16
2018-02-20T11:18:25.958Z,68.44
2018-02-20T11:19:25.982Z,68.1
2018-02-20T11:20:25.944Z,67.31
2018-02-20T11:21:25.921Z,67.06
2018-02-20T11:22:26.040Z,67.83
2018-02-20T11:23:25.964Z,66.92
2018-02-20T11:24:26.024Z,66.38
2018-02-20T11:25:26.039Z,66.66
2018-02-20T11:26:26.046Z,66.85
2018-02-20T11:27:26.048Z,66.72
2018-02-20T11:28:26.372Z,67.19
2018-02-20T11:29:26.062Z,66.47
2018-02-20T11:30:26.052Z,65.89
2018-02-20T11:31:26.056Z,65.55
2018-02-20T11:32:26.057Z,65.48
2018-02-20T11:33:26.100Z,65.86
2018-02-20T11:34:26.072Z,65.78
2018-02-20T11:35:26.062Z,65.62
2018-02-20T11:36:26.080Z,64.71
2018-02-20T11:37:25.973Z,65.11
2018-02-20T11:38:26.096Z,65.64
2018-02-20T11:39:26.067Z,65.28
2018-02-20T11:40:25.973Z,66.12
2018-02-20T11:41:26.079Z,66.19
2018-02-20T11:42:26.076Z,65.82
2018-02-20T11:43:26.109Z,66.5
2018-02-20T11:44:26.096Z,65.55
2018-02-20T11:45:26.097Z,65.71
2018-02-20T11:46:26.171Z,65.96
2018-02-20T11:47:26.096Z,66.31
2018-02-20T11:48:25.998Z,65.51
2018-02-20T11:49:26.091Z,65.93
2018-02-20T11:50:26.085Z,65.83
2018-02-20T11:51:26.093Z,66.25
2018-02-20T11:52:26.099Z,65.19
2018-02-20T11:53:26.108Z,64.27
2018-02-20T11:54:26.039Z,65.01
2018-02-20T11:55:26.122Z,64.72
2018-02-20T11:56:26.129Z,65.38
2018-02-20T11:57:26.123Z,64.92
2018-02-20T11:58:26.122Z,64.92
2018-02-20T11:59:26.296Z,65.05
2018-02-20T12:00:26.111Z,63.88
2018-02-20T12:01:26.151Z,64.05
2018-02-20T12:02:26.059Z,63.35
2018-02-20T12:03:26.139Z,63.76
2018-02-20T12:04:26.080Z,63.45
2018-02-20T12:05:26.226Z,63.81
2018-02-20T12:06:26.038Z,63.45
2018-02-20T12:07:26.035Z,63.55
2018-02-20T12:08:26.052Z,63.83
2018-02-20T12:09:26.113Z,64.1
2018-02-20T12:10:26.052Z,62.97
2018-02-20T12:11:26.044Z,63.29
2018-02-20T12:12:26.073Z,63.59
2018-02-20T12:13:26.066Z,63.47
2018-02-20T12:14:26.081Z,63.07
2018-02-20T12:15:26.055Z,63.55
2018-02-20T12:16:26.054Z,63.3
2018-02-20T12:17:26.056Z,63.64
2018-02-20T12:18:26.061Z,63.98
2018-02-20T12:19:26.059Z,63.31
2018-02-20T12:20:26.050Z,63.54
2018-02-20T12:21:26.058Z,63.31
2018-02-20T12:22:26.055Z,63.6
2018-02-20T12:23:26.056Z,63.77
2018-02-20T12:24:26.046Z,63.67
2018-02-20T12:25:26.050Z,63.88
2018-02-20T12:26:26.066Z,63.83
2018-02-20T12:27:26.067Z,62.72
2018-02-20T12:28:26.050Z,63.07
2018-02-20T12:29:26.059Z,63.33
2018-02-20T12:30:26.060Z,63.56
2018-02-20T12:31:26.062Z,64.21
2018-02-20T12:32:26.046Z,64.16
2018-02-20T12:33:26.208Z,63.67
2018-02-20T12:34:26.234Z,63.94
2018-02-20T12:35:26.227Z,63.49
2018-02-20T12:36:26.227Z,63.4
2018-02-20T12:37:26.237Z,63.35
2018-02-20T12:38:26.230Z,63.77
2018-02-20T12:39:26.259Z,63.41
2018-02-20T12:40:26.235Z,64.27
2018-02-20T12:41:26.235Z,64.36
2018-02-20T12:42:26.098Z,64.47
2018-02-20T12:43:26.296Z,63.32
2018-02-20T12:44:26.124Z,63.72
2018-02-20T12:45:26.255Z,64.1
2018-02-20T12:46:26.105Z,64.41
2018-02-20T12:47:26.115Z,64.68
2018-02-20T12:48:26.255Z,65.03
2018-02-20T12:49:26.382Z,64.49
2018-02-20T12:50:26.269Z,64.06
2018-02-20T12:51:26.294Z,64.07
2018-02-20T12:52:26.286Z,63.79
2018-02-20T12:53:26.133Z,64.21
2018-02-20T12:54:26.304Z,64.12
2018-02-20T12:55:26.109Z,64.19
2018-02-20T12:56:26.292Z,64.31